Etusivu
METAR-TAF:

METAR-TAF

Lentoasemat :

Vlissingen, Alankomaat

Leveyspiiri: 51-27N, Pituuspiiri: 3-36E, korkeus merenpinnasta: 10 m

Tämänhetkinen sää

Tämä raportti tehtiin 21 minuuttia sitten, kello 19.25 UTC
Tuuli 7 kn koillisesta
Lämpötila 20°C
Kosteus 73%
Ilmanpaine 1023 hPa
Näkyvyys 10 km tai enemmän

METAR: EHFS 231925Z AUTO 04007KT 9999 NSC 20/15 Q1023 W///H///

Aika: 21:46 (19:46 UTC)


TAF: puuttuu

Säähavainnot ja -ennusteet yli 4000 lentoasemalta (METAR- ja TAF-raportit).

Käytössä olevat sääasemat on merkitty karttaan keltaisilla ja punaisilla pisteillä.

Aseta hiiri pisteen päälle nähdäksesi sääaseman nimen.

Klikkaa sitten nähdäksesi säähavainnot ja -ennusteet.

Kartan vaihtaminen: klikkaa mustalla rastilla varustettuja vihreitä pisteitä, niin voit zoomata sisään; viivalla varustettua vihreää pistettä, niin voit zoomata ulos tai vihreitä nuolia, niin pääset viereisille kartoille.


METAR-TAF: